createdAt,value
2016-07-13T00:00:12.381Z,18.08
2016-07-13T00:01:13.070Z,18.05
2016-07-13T00:02:13.080Z,18.14
2016-07-13T00:03:13.050Z,18.14
2016-07-13T00:04:13.040Z,18.05
2016-07-13T00:05:13.001Z,18.01
2016-07-13T00:06:12.325Z,17.95
2016-07-13T00:07:11.555Z,18.05
2016-07-13T00:08:13.024Z,17.95
2016-07-13T00:09:12.247Z,18
2016-07-13T00:10:12.951Z,17.98
2016-07-13T00:11:12.938Z,17.87
2016-07-13T00:12:12.944Z,17.96
2016-07-13T00:13:12.908Z,17.95
2016-07-13T00:14:12.890Z,17.89
2016-07-13T00:15:12.878Z,17.9
2016-07-13T00:16:12.159Z,17.89
2016-07-13T00:17:12.146Z,17.9
2016-07-13T00:18:12.856Z,17.83
2016-07-13T00:19:12.826Z,17.87
2016-07-13T00:20:12.820Z,17.95
2016-07-13T00:21:12.084Z,17.98
2016-07-13T00:22:12.790Z,17.95
2016-07-13T00:23:12.772Z,17.95
2016-07-13T00:24:12.762Z,17.92
2016-07-13T00:25:12.749Z,17.83
2016-07-13T00:26:12.018Z,17.8
2016-07-13T00:27:12.735Z,17.92
2016-07-13T00:28:11.987Z,17.86
2016-07-13T00:29:12.689Z,17.85
2016-07-13T00:30:12.682Z,17.75
2016-07-13T00:31:12.664Z,17.82
2016-07-13T00:32:12.649Z,17.82
2016-07-13T00:33:12.628Z,17.75
2016-07-13T00:34:12.628Z,17.72
2016-07-13T00:35:11.899Z,17.8
2016-07-13T00:36:12.603Z,17.75
2016-07-13T00:37:11.876Z,17.83
2016-07-13T00:38:12.574Z,17.83
2016-07-13T00:39:12.567Z,17.85
2016-07-13T00:40:12.616Z,17.77
2016-07-13T00:41:11.829Z,17.75
2016-07-13T00:42:12.573Z,17.75
2016-07-13T00:43:12.518Z,17.68
2016-07-13T00:44:11.850Z,17.67
2016-07-13T00:45:12.462Z,17.65
2016-07-13T00:46:12.476Z,17.7
2016-07-13T00:47:12.452Z,17.77
2016-07-13T00:48:11.735Z,17.64
2016-07-13T00:49:11.704Z,17.65
2016-07-13T00:50:12.427Z,17.62
2016-07-13T00:51:12.389Z,17.55
2016-07-13T00:52:12.397Z,17.46
2016-07-13T00:53:11.655Z,17.51
2016-07-13T00:54:12.359Z,17.44
2016-07-13T00:55:12.349Z,17.45
2016-07-13T00:56:10.989Z,17.45
2016-07-13T00:57:12.308Z,17.46
2016-07-13T00:58:12.303Z,17.4
2016-07-13T00:59:12.290Z,17.56
2016-07-13T01:00:11.555Z,17.48
2016-07-13T01:01:12.269Z,17.56
2016-07-13T01:02:11.539Z,17.62
2016-07-13T01:03:12.239Z,17.62
2016-07-13T01:04:12.232Z,17.67
2016-07-13T01:05:12.209Z,17.62
2016-07-13T01:06:11.489Z,17.4
2016-07-13T01:07:12.183Z,17.42
2016-07-13T01:08:12.163Z,17.46
2016-07-13T01:09:12.154Z,17.46
2016-07-13T01:10:12.140Z,17.44
2016-07-13T01:11:12.121Z,17.52
2016-07-13T01:12:12.107Z,17.46
2016-07-13T01:13:11.447Z,17.4
2016-07-13T01:14:12.079Z,17.44
2016-07-13T01:15:12.071Z,17.44
2016-07-13T01:16:12.068Z,17.49
2016-07-13T01:17:11.336Z,17.56
2016-07-13T01:18:11.320Z,17.64
2016-07-13T01:19:12.027Z,17.64
2016-07-13T01:20:11.998Z,17.6
2016-07-13T01:21:12.026Z,17.65
2016-07-13T01:22:11.978Z,17.52
2016-07-13T01:23:12.010Z,17.62
2016-07-13T01:24:11.944Z,17.56
2016-07-13T01:25:11.942Z,17.58
2016-07-13T01:26:11.205Z,17.54
2016-07-13T01:27:11.197Z,17.54
2016-07-13T01:28:11.200Z,17.52
2016-07-13T01:29:11.890Z,17.48
2016-07-13T01:30:11.874Z,17.52
2016-07-13T01:31:11.887Z,17.46
2016-07-13T01:32:11.136Z,17.45
2016-07-13T01:33:11.838Z,17.42
2016-07-13T01:34:11.809Z,17.44
2016-07-13T01:35:11.088Z,17.4
2016-07-13T01:36:11.071Z,17.45
2016-07-13T01:37:11.788Z,17.46
2016-07-13T01:38:11.767Z,17.48
2016-07-13T01:39:11.851Z,17.33
2016-07-13T01:40:11.728Z,17.36
2016-07-13T01:41:11.770Z,17.37
2016-07-13T01:42:10.275Z,17.46
2016-07-13T01:43:11.738Z,17.36
2016-07-13T01:44:11.678Z,17.42
2016-07-13T01:45:11.680Z,17.33
2016-07-13T01:46:11.656Z,17.31
2016-07-13T01:47:11.638Z,17.29
2016-07-13T01:48:11.621Z,17.44
2016-07-13T01:49:11.621Z,17.45
2016-07-13T01:50:11.601Z,17.45
2016-07-13T01:51:11.590Z,17.37
2016-07-13T01:52:11.580Z,17.31
2016-07-13T01:53:11.559Z,17.22
2016-07-13T01:54:11.558Z,17.19
2016-07-13T01:55:10.839Z,17.14
2016-07-13T01:56:11.512Z,17.03
2016-07-13T01:57:11.517Z,17.12
2016-07-13T01:58:11.477Z,17.12
2016-07-13T01:59:11.476Z,17.16
2016-07-13T02:00:11.467Z,17.24
2016-07-13T02:01:11.569Z,17.16
2016-07-13T02:02:11.436Z,17.19
2016-07-13T02:03:10.705Z,17.18
2016-07-13T02:04:11.411Z,17.19
2016-07-13T02:05:11.389Z,17.18
2016-07-13T02:06:11.381Z,17.3
2016-07-13T02:07:11.382Z,17.19
2016-07-13T02:08:11.363Z,17.16
2016-07-13T02:09:11.358Z,17.26
2016-07-13T02:10:11.334Z,17.27
2016-07-13T02:11:11.326Z,17.16
2016-07-13T02:12:11.309Z,17.3
2016-07-13T02:13:11.292Z,17.18
2016-07-13T02:14:11.262Z,17.33
2016-07-13T02:15:11.262Z,17.3
2016-07-13T02:16:11.231Z,17.36
2016-07-13T02:17:11.247Z,17.33
2016-07-13T02:18:11.219Z,17.16
2016-07-13T02:19:11.202Z,17.19
2016-07-13T02:20:11.204Z,17.19
2016-07-13T02:21:11.162Z,17.08
2016-07-13T02:22:11.170Z,17.06
2016-07-13T02:23:10.426Z,16.96
2016-07-13T02:24:11.151Z,16.87
2016-07-13T02:25:10.404Z,16.81
2016-07-13T02:26:11.102Z,16.94
2016-07-13T02:27:10.369Z,16.94
2016-07-13T02:28:11.071Z,16.89
2016-07-13T02:29:11.060Z,16.91
2016-07-13T02:30:11.045Z,16.97
2016-07-13T02:31:11.037Z,16.85
2016-07-13T02:32:10.307Z,16.74
2016-07-13T02:33:11.015Z,16.74
2016-07-13T02:34:10.981Z,16.6
2016-07-13T02:35:10.984Z,16.61
2016-07-13T02:36:10.978Z,16.58
2016-07-13T02:37:10.964Z,16.75
2016-07-13T02:38:10.938Z,16.61
2016-07-13T02:39:10.923Z,16.71
2016-07-13T02:40:10.201Z,16.6
2016-07-13T02:41:10.887Z,16.66
2016-07-13T02:42:10.898Z,16.51
2016-07-13T02:43:10.891Z,16.54
2016-07-13T02:44:10.846Z,16.61
2016-07-13T02:45:10.827Z,16.51
2016-07-13T02:46:10.891Z,16.48
2016-07-13T02:47:10.798Z,16.46
2016-07-13T02:48:10.867Z,16.6
2016-07-13T02:49:10.791Z,16.75
2016-07-13T02:50:10.777Z,16.69
2016-07-13T02:51:10.736Z,16.68
2016-07-13T02:52:10.735Z,16.56
2016-07-13T02:53:09.993Z,16.56
2016-07-13T02:54:10.060Z,16.56
2016-07-13T02:55:09.996Z,16.61
2016-07-13T02:56:10.681Z,16.6
2016-07-13T02:57:09.937Z,16.64
2016-07-13T02:58:10.641Z,16.45
2016-07-13T02:59:10.634Z,16.35
2016-07-13T03:00:10.623Z,16.42
2016-07-13T03:01:10.601Z,16.34
2016-07-13T03:02:10.641Z,16.34
2016-07-13T03:03:10.575Z,16.36
2016-07-13T03:04:10.618Z,16.41
2016-07-13T03:05:10.539Z,16.5
2016-07-13T03:06:10.537Z,16.6
2016-07-13T03:07:10.512Z,16.68
2016-07-13T03:08:10.508Z,16.6
2016-07-13T03:09:10.475Z,16.42
2016-07-13T03:10:10.509Z,16.34
2016-07-13T03:11:09.814Z,16.32
2016-07-13T03:12:09.734Z,16.07
2016-07-13T03:13:10.434Z,16.1
2016-07-13T03:14:09.701Z,16.26
2016-07-13T03:15:10.416Z,16.34
2016-07-13T03:16:10.382Z,16.35
2016-07-13T03:17:09.681Z,16.23
2016-07-13T03:18:10.403Z,16.27
2016-07-13T03:19:09.626Z,16.32
2016-07-13T03:20:10.355Z,16.36
2016-07-13T03:21:10.313Z,16.34
2016-07-13T03:22:10.290Z,16.32
2016-07-13T03:23:10.291Z,16.45
2016-07-13T03:24:10.282Z,16.46
2016-07-13T03:25:10.265Z,16.48
2016-07-13T03:26:10.241Z,16.51
2016-07-13T03:27:10.226Z,16.56
2016-07-13T03:28:10.215Z,16.61
2016-07-13T03:29:10.203Z,16.69
2016-07-13T03:30:09.481Z,16.78
2016-07-13T03:31:10.180Z,16.69
2016-07-13T03:32:09.458Z,16.74
2016-07-13T03:33:09.432Z,16.69
2016-07-13T03:34:10.140Z,16.61
2016-07-13T03:35:09.396Z,16.46
2016-07-13T03:36:10.101Z,16.45
2016-07-13T03:37:09.371Z,16.53
2016-07-13T03:38:10.070Z,16.57
2016-07-13T03:39:10.055Z,16.66
2016-07-13T03:40:10.076Z,16.74
2016-07-13T03:41:10.041Z,16.61
2016-07-13T03:42:10.017Z,16.45
2016-07-13T03:43:09.300Z,16.38
2016-07-13T03:44:09.265Z,16.26
2016-07-13T03:45:09.258Z,16.23
2016-07-13T03:46:09.967Z,16.1
2016-07-13T03:47:09.972Z,16.23
2016-07-13T03:48:09.917Z,16.17
2016-07-13T03:49:09.199Z,16.17
2016-07-13T03:50:09.901Z,16.36
2016-07-13T03:51:09.171Z,16.38
2016-07-13T03:52:09.878Z,16.46
2016-07-13T03:53:09.858Z,16.58
2016-07-13T03:54:09.851Z,16.46
2016-07-13T03:55:09.116Z,16.34
2016-07-13T03:56:09.806Z,16.07
2016-07-13T03:57:09.793Z,16
2016-07-13T03:58:09.786Z,15.83
2016-07-13T03:59:09.060Z,16.01
2016-07-13T04:00:09.759Z,16.04
2016-07-13T04:01:09.762Z,16.15
2016-07-13T04:02:09.734Z,16.28
2016-07-13T04:03:08.998Z,16.34
2016-07-13T04:04:09.707Z,16.5
2016-07-13T04:05:08.972Z,16.45
2016-07-13T04:06:09.678Z,16.57
2016-07-13T04:07:09.661Z,16.64
2016-07-13T04:08:09.654Z,16.51
2016-07-13T04:09:09.630Z,16.6
2016-07-13T04:10:09.631Z,16.54
2016-07-13T04:11:09.601Z,16.63
2016-07-13T04:12:09.598Z,16.58
2016-07-13T04:13:09.571Z,16.69
2016-07-13T04:14:09.554Z,16.78
2016-07-13T04:15:09.566Z,16.72
2016-07-13T04:16:08.802Z,16.81
2016-07-13T04:17:08.124Z,16.83
2016-07-13T04:18:09.501Z,16.66
2016-07-13T04:19:09.570Z,16.6
2016-07-13T04:20:09.476Z,16.63
2016-07-13T04:21:09.471Z,16.64
2016-07-13T04:22:08.008Z,16.61
2016-07-13T04:23:09.426Z,16.58
2016-07-13T04:24:08.712Z,16.6
2016-07-13T04:25:09.449Z,16.63
2016-07-13T04:26:09.391Z,16.68
2016-07-13T04:27:09.431Z,16.74
2016-07-13T04:28:09.380Z,16.74
2016-07-13T04:29:09.353Z,16.78
2016-07-13T04:30:09.331Z,16.75
2016-07-13T04:31:09.326Z,16.79
2016-07-13T04:32:08.586Z,16.69
2016-07-13T04:33:09.276Z,16.76
2016-07-13T04:34:09.265Z,16.79
2016-07-13T04:35:09.282Z,16.76
2016-07-13T04:36:09.247Z,16.82
2016-07-13T04:37:09.218Z,16.85
2016-07-13T04:38:09.216Z,16.82
2016-07-13T04:39:08.496Z,16.87
2016-07-13T04:40:08.478Z,16.87
2016-07-13T04:41:09.173Z,16.94
2016-07-13T04:42:09.158Z,16.75
2016-07-13T04:43:09.200Z,16.82
2016-07-13T04:44:08.405Z,16.89
2016-07-13T04:45:09.161Z,16.91
2016-07-13T04:46:08.388Z,16.82
2016-07-13T04:47:08.422Z,16.76
2016-07-13T04:48:09.071Z,16.81
2016-07-13T04:49:09.055Z,16.69
2016-07-13T04:50:08.336Z,16.85
2016-07-13T04:51:09.030Z,16.82
2016-07-13T04:52:08.293Z,16.83
2016-07-13T04:53:09.007Z,16.89
2016-07-13T04:54:08.998Z,16.96
2016-07-13T04:55:08.982Z,16.97
2016-07-13T04:56:08.960Z,16.96
2016-07-13T04:57:08.961Z,17.09
2016-07-13T04:58:08.218Z,16.93
2016-07-13T04:59:08.962Z,16.94
2016-07-13T05:00:08.921Z,16.78
2016-07-13T05:01:08.166Z,16.69
2016-07-13T05:02:08.165Z,16.76
2016-07-13T05:03:08.866Z,16.66
2016-07-13T05:04:08.853Z,16.74
2016-07-13T05:05:08.187Z,16.78
2016-07-13T05:06:08.816Z,16.79
2016-07-13T05:07:08.101Z,16.79
2016-07-13T05:08:08.801Z,16.71
2016-07-13T05:09:08.062Z,16.68
2016-07-13T05:10:08.769Z,16.71
2016-07-13T05:11:08.034Z,16.75
2016-07-13T05:12:08.011Z,16.96
2016-07-13T05:13:08.004Z,16.83
2016-07-13T05:14:08.723Z,16.64
2016-07-13T05:15:07.982Z,16.46
2016-07-13T05:16:08.687Z,16.42
2016-07-13T05:17:08.689Z,16.36
2016-07-13T05:18:08.660Z,16.45
2016-07-13T05:19:08.635Z,16.34
2016-07-13T05:20:08.623Z,16.48
2016-07-13T05:21:08.616Z,16.64
2016-07-13T05:22:07.889Z,16.68
2016-07-13T05:23:08.585Z,16.82
2016-07-13T05:24:08.571Z,16.68
2016-07-13T05:25:08.561Z,16.71
2016-07-13T05:26:08.550Z,16.69
2016-07-13T05:27:08.520Z,16.69
2016-07-13T05:28:08.523Z,16.71
2016-07-13T05:29:08.499Z,16.76
2016-07-13T05:30:07.070Z,16.82
2016-07-13T05:31:07.049Z,16.96
2016-07-13T05:32:08.456Z,17.08
2016-07-13T05:33:08.440Z,17.11
2016-07-13T05:34:08.417Z,17.11
2016-07-13T05:35:08.409Z,16.82
2016-07-13T05:36:08.401Z,16.74
2016-07-13T05:37:08.403Z,16.81
2016-07-13T05:38:06.942Z,16.85
2016-07-13T05:39:08.352Z,16.82
2016-07-13T05:40:08.346Z,16.89
2016-07-13T05:41:07.609Z,16.87
2016-07-13T05:42:07.649Z,16.94
2016-07-13T05:43:07.596Z,16.94
2016-07-13T05:44:08.286Z,16.91
2016-07-13T05:45:08.280Z,16.78
2016-07-13T05:46:08.276Z,16.79
2016-07-13T05:47:08.249Z,16.81
2016-07-13T05:48:08.241Z,16.74
2016-07-13T05:49:08.207Z,16.69
2016-07-13T05:50:07.495Z,16.61
2016-07-13T05:51:07.480Z,16.71
2016-07-13T05:52:07.454Z,16.68
2016-07-13T05:53:07.451Z,16.69
2016-07-13T05:54:07.432Z,16.78
2016-07-13T05:55:07.419Z,16.87
2016-07-13T05:56:07.480Z,17
2016-07-13T05:57:07.411Z,17.09
2016-07-13T05:58:08.132Z,17.16
2016-07-13T05:59:08.080Z,17.18
2016-07-13T06:00:08.074Z,17.21
2016-07-13T06:01:08.049Z,17.37
2016-07-13T06:02:08.031Z,17.44
2016-07-13T06:03:08.018Z,17.62
2016-07-13T06:04:08.013Z,17.89
2016-07-13T06:05:07.988Z,17.71
2016-07-13T06:06:07.271Z,17.77
2016-07-13T06:07:07.967Z,17.71
2016-07-13T06:08:07.947Z,17.8
2016-07-13T06:09:07.937Z,17.86
2016-07-13T06:10:07.940Z,17.44
2016-07-13T06:11:06.492Z,17.64
2016-07-13T06:12:07.905Z,17.71
2016-07-13T06:13:07.883Z,17.82
2016-07-13T06:14:07.939Z,17.83
2016-07-13T06:15:06.443Z,17.86
2016-07-13T06:16:07.854Z,17.64
2016-07-13T06:17:07.843Z,17.52
2016-07-13T06:18:07.848Z,17.62
2016-07-13T06:19:07.815Z,17.83
2016-07-13T06:20:07.812Z,17.77
2016-07-13T06:21:07.803Z,18
2016-07-13T06:22:07.839Z,18.07
2016-07-13T06:23:07.775Z,18.19
2016-07-13T06:24:06.332Z,18.29
2016-07-13T06:25:07.749Z,18
2016-07-13T06:26:07.010Z,17.86
2016-07-13T06:27:07.719Z,17.92
2016-07-13T06:28:07.742Z,17.93
2016-07-13T06:29:07.670Z,17.85
2016-07-13T06:30:06.973Z,18
2016-07-13T06:31:07.658Z,18.05
2016-07-13T06:32:06.923Z,18.27
2016-07-13T06:33:06.926Z,18.35
2016-07-13T06:34:07.622Z,18.02
2016-07-13T06:35:07.589Z,18.1
2016-07-13T06:36:07.602Z,18.23
2016-07-13T06:37:07.590Z,18.29
2016-07-13T06:38:07.570Z,18.3
2016-07-13T06:39:07.561Z,18.32
2016-07-13T06:40:07.549Z,18.45
2016-07-13T06:41:06.822Z,18.58
2016-07-13T06:42:06.800Z,18.56
2016-07-13T06:43:07.500Z,18.59
2016-07-13T06:44:07.487Z,18.38
2016-07-13T06:45:07.489Z,18.25
2016-07-13T06:46:07.471Z,17.92
2016-07-13T06:47:07.464Z,18.05
2016-07-13T06:48:07.437Z,18.35
2016-07-13T06:49:07.429Z,18.42
2016-07-13T06:50:07.413Z,18.63
2016-07-13T06:51:06.740Z,18.62
2016-07-13T06:52:07.387Z,18.63
2016-07-13T06:53:06.660Z,18.67
2016-07-13T06:54:07.353Z,18.58
2016-07-13T06:55:06.680Z,18.58
2016-07-13T06:56:05.910Z,18.74
2016-07-13T06:57:07.317Z,18.93
2016-07-13T06:58:06.613Z,18.87
2016-07-13T06:59:06.772Z,18.95
2016-07-13T07:00:06.591Z,19.02
2016-07-13T07:01:07.286Z,19.11
2016-07-13T07:02:06.553Z,19.07
2016-07-13T07:03:06.600Z,18.99
2016-07-13T07:04:07.245Z,18.87
2016-07-13T07:05:07.301Z,18.77
2016-07-13T07:06:07.214Z,18.62
2016-07-13T07:07:06.543Z,18.45
2016-07-13T07:08:07.195Z,18.45
2016-07-13T07:09:07.199Z,18.48
2016-07-13T07:10:06.457Z,18.56
2016-07-13T07:11:07.176Z,18.77
2016-07-13T07:12:07.150Z,18.75
2016-07-13T07:13:07.147Z,18.85
2016-07-13T07:14:06.395Z,18.99
2016-07-13T07:15:07.117Z,18.82
2016-07-13T07:16:07.109Z,18.9
2016-07-13T07:17:06.368Z,19
2016-07-13T07:18:06.348Z,19.19
2016-07-13T07:19:07.095Z,19.36
2016-07-13T07:20:07.061Z,19.22
2016-07-13T07:21:07.087Z,19.44
2016-07-13T07:22:07.019Z,19.52
2016-07-13T07:23:06.300Z,19.69
2016-07-13T07:24:06.282Z,19.59
2016-07-13T07:25:06.993Z,19.44
2016-07-13T07:26:06.255Z,19.23
2016-07-13T07:27:06.964Z,19.56
2016-07-13T07:28:06.303Z,19.78
2016-07-13T07:29:06.240Z,19.76
2016-07-13T07:30:06.211Z,19.7
2016-07-13T07:31:06.920Z,19.93
2016-07-13T07:32:06.919Z,20.13
2016-07-13T07:33:06.906Z,20.25
2016-07-13T07:34:06.883Z,20.23
2016-07-13T07:35:06.149Z,20.31
2016-07-13T07:36:06.860Z,20.35
2016-07-13T07:37:06.132Z,20.33
2016-07-13T07:38:06.839Z,20.18
2016-07-13T07:39:06.844Z,20.26
2016-07-13T07:40:06.818Z,20.31
2016-07-13T07:41:06.803Z,20.36
2016-07-13T07:42:06.782Z,20.25
2016-07-13T07:43:06.797Z,20.47
2016-07-13T07:44:06.768Z,20.43
2016-07-13T07:45:06.783Z,20.6
2016-07-13T07:46:06.760Z,20.82
2016-07-13T07:47:06.742Z,21.13
2016-07-13T07:48:06.029Z,21.07
2016-07-13T07:49:06.722Z,21.11
2016-07-13T07:50:06.707Z,21.25
2016-07-13T07:51:05.978Z,21.21
2016-07-13T07:52:06.681Z,21.17
2016-07-13T07:53:06.671Z,21.28
2016-07-13T07:54:06.003Z,21.22
2016-07-13T07:55:06.651Z,21.41
2016-07-13T07:56:06.642Z,21.21
2016-07-13T07:57:05.910Z,21.13
2016-07-13T07:58:06.620Z,21.26
2016-07-13T07:59:05.888Z,21.43
2016-07-13T08:00:06.596Z,21.65
2016-07-13T08:01:06.600Z,21.93
2016-07-13T08:02:05.868Z,21.96
2016-07-13T08:03:06.560Z,21.9
2016-07-13T08:04:05.837Z,21.44
2016-07-13T08:05:05.825Z,21.18
2016-07-13T08:06:06.561Z,20.84
2016-07-13T08:07:06.512Z,20.91
2016-07-13T08:08:05.811Z,21.02
2016-07-13T08:09:05.791Z,21.28
2016-07-13T08:10:06.520Z,21.39
2016-07-13T08:11:05.766Z,21.46
2016-07-13T08:12:06.492Z,21.68
2016-07-13T08:13:06.458Z,21.71
2016-07-13T08:14:06.469Z,21.81
2016-07-13T08:15:06.458Z,21.79
2016-07-13T08:16:05.723Z,21.77
2016-07-13T08:17:06.429Z,21.79
2016-07-13T08:18:06.407Z,21.93
2016-07-13T08:19:06.397Z,21.93
2016-07-13T08:20:05.710Z,21.97
2016-07-13T08:21:05.677Z,21.9
2016-07-13T08:22:05.649Z,22.1
2016-07-13T08:23:06.369Z,22.17
2016-07-13T08:24:05.639Z,22.18
2016-07-13T08:25:06.332Z,21.84
2016-07-13T08:26:05.630Z,21.58
2016-07-13T08:27:06.318Z,21.59
2016-07-13T08:28:06.334Z,21.64
2016-07-13T08:29:05.582Z,21.68
2016-07-13T08:30:05.572Z,21.49
2016-07-13T08:31:06.281Z,21.66
2016-07-13T08:32:06.277Z,21.8
2016-07-13T08:33:06.261Z,21.86
2016-07-13T08:34:06.253Z,21.96
2016-07-13T08:35:06.242Z,22.1
2016-07-13T08:36:05.509Z,22.08
2016-07-13T08:37:06.205Z,22.21
2016-07-13T08:38:06.238Z,22.32
2016-07-13T08:39:06.211Z,22.47
2016-07-13T08:40:06.193Z,22.54
2016-07-13T08:41:06.176Z,22.51
2016-07-13T08:42:06.160Z,22.67
2016-07-13T08:43:05.519Z,22.37
2016-07-13T08:44:06.150Z,22.35
2016-07-13T08:45:06.139Z,22.22
2016-07-13T08:46:05.410Z,22.37
2016-07-13T08:47:06.111Z,22.39
2016-07-13T08:48:06.106Z,22.5
2016-07-13T08:49:05.380Z,22.43
2016-07-13T08:50:06.095Z,22.2
2016-07-13T08:51:06.080Z,22.39
2016-07-13T08:52:05.348Z,22.3
2016-07-13T08:53:06.054Z,22.17
2016-07-13T08:54:06.045Z,22.12
2016-07-13T08:55:05.360Z,22.48
2016-07-13T08:56:05.302Z,22.54
2016-07-13T08:57:06.038Z,22.62
2016-07-13T08:58:05.996Z,22.54
2016-07-13T08:59:05.991Z,22.62
2016-07-13T09:00:05.980Z,22.4
2016-07-13T09:01:05.980Z,22.61
2016-07-13T09:02:05.247Z,22.7
2016-07-13T09:03:05.954Z,22.47
2016-07-13T09:04:04.520Z,22.58
2016-07-13T09:05:05.938Z,22.61
2016-07-13T09:06:05.927Z,22.99
2016-07-13T09:07:05.923Z,23.13
2016-07-13T09:08:05.905Z,23.35
2016-07-13T09:09:05.186Z,23.28
2016-07-13T09:10:05.175Z,23.4
2016-07-13T09:11:05.906Z,23.35
2016-07-13T09:12:05.150Z,23.47
2016-07-13T09:13:05.911Z,23.5
2016-07-13T09:14:05.868Z,23.84
2016-07-13T09:15:05.831Z,23.67
2016-07-13T09:16:05.833Z,23.69
2016-07-13T09:17:05.106Z,23.5
2016-07-13T09:18:05.812Z,23.77
2016-07-13T09:19:05.880Z,23.62
2016-07-13T09:20:05.085Z,23.41
2016-07-13T09:21:05.069Z,23.45
2016-07-13T09:22:05.058Z,23.59
2016-07-13T09:23:05.060Z,23.57
2016-07-13T09:24:05.042Z,23.42
2016-07-13T09:25:05.040Z,23.36
2016-07-13T09:26:05.028Z,23.45
2016-07-13T09:27:05.799Z,23.59
2016-07-13T09:28:05.722Z,23.33
2016-07-13T09:29:04.281Z,23.22
2016-07-13T09:30:05.709Z,23.29
2016-07-13T09:31:05.696Z,23.24
2016-07-13T09:32:04.974Z,23.32
2016-07-13T09:33:05.674Z,23.38
2016-07-13T09:34:05.677Z,23.69
2016-07-13T09:35:05.668Z,23.4
2016-07-13T09:36:05.649Z,23.57
2016-07-13T09:37:04.930Z,23.81
2016-07-13T09:38:04.260Z,23.97
2016-07-13T09:39:04.910Z,23.28
2016-07-13T09:40:05.617Z,23.38
2016-07-13T09:41:04.895Z,23.25
2016-07-13T09:42:04.876Z,23.28
2016-07-13T09:43:05.586Z,23.24
2016-07-13T09:44:05.573Z,22.98
2016-07-13T09:45:04.857Z,22.59
2016-07-13T09:46:05.557Z,22.39
2016-07-13T09:47:04.835Z,22.5
2016-07-13T09:48:05.539Z,23.03
2016-07-13T09:49:05.515Z,23.42
2016-07-13T09:50:05.545Z,23.7
2016-07-13T09:51:05.515Z,24
2016-07-13T09:52:04.130Z,24.18
2016-07-13T09:53:04.791Z,23.97
2016-07-13T09:54:04.760Z,24.09
2016-07-13T09:55:05.501Z,24.24
2016-07-13T09:56:05.460Z,24.32
2016-07-13T09:57:05.452Z,24.51
2016-07-13T09:58:05.436Z,24.34
2016-07-13T09:59:05.438Z,24.46
2016-07-13T10:00:04.037Z,24.42
2016-07-13T10:01:05.430Z,24.09
2016-07-13T10:02:03.978Z,24.04
2016-07-13T10:03:05.418Z,23.97
2016-07-13T10:04:04.680Z,23.87
2016-07-13T10:05:04.670Z,23.63
2016-07-13T10:06:04.669Z,23.78
2016-07-13T10:07:05.365Z,23.89
2016-07-13T10:08:05.366Z,23.57
2016-07-13T10:09:05.341Z,23.55
2016-07-13T10:10:04.631Z,23.91
2016-07-13T10:11:05.336Z,23.97
2016-07-13T10:12:04.605Z,23.48
2016-07-13T10:13:04.619Z,23.63
2016-07-13T10:14:04.601Z,23.81
2016-07-13T10:15:04.590Z,23.73
2016-07-13T10:16:04.586Z,23.97
2016-07-13T10:17:04.619Z,24.15
2016-07-13T10:18:05.267Z,24.28
2016-07-13T10:19:05.253Z,24.29
2016-07-13T10:20:05.258Z,24.33
2016-07-13T10:21:03.832Z,24.47
2016-07-13T10:22:04.512Z,24.47
2016-07-13T10:23:05.231Z,24.22
2016-07-13T10:24:03.802Z,23.78
2016-07-13T10:25:05.208Z,23.35
2016-07-13T10:26:05.220Z,23.32
2016-07-13T10:27:04.477Z,23.33
2016-07-13T10:28:04.459Z,23.5
2016-07-13T10:29:05.195Z,23.73
2016-07-13T10:30:04.460Z,23.78
2016-07-13T10:31:04.490Z,23.95
2016-07-13T10:32:04.434Z,24.09
2016-07-13T10:33:05.158Z,24.17
2016-07-13T10:34:04.430Z,24.22
2016-07-13T10:35:05.130Z,24.28
2016-07-13T10:36:04.408Z,24.32
2016-07-13T10:37:03.711Z,24.37
2016-07-13T10:38:04.396Z,24.07
2016-07-13T10:39:05.106Z,24.58
2016-07-13T10:40:04.381Z,24.8
2016-07-13T10:41:04.370Z,25.19
2016-07-13T10:42:05.073Z,25.44
2016-07-13T10:43:05.086Z,25.73
2016-07-13T10:44:05.058Z,25.48
2016-07-13T10:45:03.680Z,25.4
2016-07-13T10:46:05.061Z,25.55
2016-07-13T10:47:04.366Z,25.4
2016-07-13T10:48:05.034Z,25.25
2016-07-13T10:49:05.031Z,25.3
2016-07-13T10:50:05.002Z,25.33
2016-07-13T10:51:05.097Z,25.03
2016-07-13T10:52:04.280Z,24.75
2016-07-13T10:53:04.999Z,24.59
2016-07-13T10:54:03.560Z,24.9
2016-07-13T10:55:04.308Z,25.17
2016-07-13T10:56:04.331Z,25.4
2016-07-13T10:57:04.965Z,25.33
2016-07-13T10:58:04.238Z,24.99
2016-07-13T10:59:04.970Z,25.07
2016-07-13T11:00:04.937Z,25.07
2016-07-13T11:01:04.941Z,24.7
2016-07-13T11:02:05.004Z,24.62
2016-07-13T11:03:04.222Z,24.59
2016-07-13T11:04:04.248Z,24.52
2016-07-13T11:05:04.188Z,24.82
2016-07-13T11:06:04.184Z,24.92
2016-07-13T11:07:04.187Z,25.02
2016-07-13T11:08:04.232Z,25.05
2016-07-13T11:09:04.869Z,25.14
2016-07-13T11:10:04.143Z,24.9
2016-07-13T11:11:04.151Z,24.8
2016-07-13T11:12:04.850Z,24.87
2016-07-13T11:13:03.408Z,25.05
2016-07-13T11:14:04.839Z,25.11
2016-07-13T11:15:03.405Z,25.25
2016-07-13T11:16:04.867Z,24.92
2016-07-13T11:17:03.391Z,24.46
2016-07-13T11:18:04.108Z,24.24
2016-07-13T11:19:04.802Z,24.09
2016-07-13T11:20:04.819Z,24.06
2016-07-13T11:21:04.081Z,23.78
2016-07-13T11:22:04.789Z,24.14
2016-07-13T11:23:04.958Z,24.39
2016-07-13T11:24:04.759Z,24.7
2016-07-13T11:25:04.025Z,25.07
2016-07-13T11:26:04.025Z,25.32
2016-07-13T11:27:04.735Z,24.9
2016-07-13T11:28:04.040Z,24.65
2016-07-13T11:29:04.720Z,24.28
2016-07-13T11:30:03.985Z,24.12
2016-07-13T11:31:04.200Z,24.22
2016-07-13T11:32:04.707Z,24.44
2016-07-13T11:33:03.962Z,24.71
2016-07-13T11:34:04.246Z,24.95
2016-07-13T11:35:04.016Z,24.85
2016-07-13T11:36:04.706Z,24.69
2016-07-13T11:37:03.931Z,24.69
2016-07-13T11:38:04.646Z,24.87
2016-07-13T11:39:04.622Z,25.21
2016-07-13T11:40:04.627Z,25.3
2016-07-13T11:41:03.896Z,24.82
2016-07-13T11:42:04.617Z,24.71
2016-07-13T11:43:04.645Z,24.74
2016-07-13T11:44:03.158Z,24.87
2016-07-13T11:45:03.875Z,24.55
2016-07-13T11:46:03.148Z,24.47
2016-07-13T11:47:03.847Z,24.37
2016-07-13T11:48:03.848Z,24.39
2016-07-13T11:49:04.558Z,24.37
2016-07-13T11:50:03.830Z,24.12
2016-07-13T11:51:03.816Z,23.96
2016-07-13T11:52:04.530Z,23.99
2016-07-13T11:53:04.525Z,23.82
2016-07-13T11:54:04.522Z,23.89
2016-07-13T11:55:04.510Z,24.09
2016-07-13T11:56:04.495Z,23.96
2016-07-13T11:57:04.494Z,23.85
2016-07-13T11:58:03.758Z,24.22
2016-07-13T11:59:04.546Z,24.58
2016-07-13T12:00:03.036Z,24.84
2016-07-13T12:01:04.552Z,25.11
2016-07-13T12:02:04.441Z,25.21
2016-07-13T12:03:04.442Z,24.58
2016-07-13T12:04:04.456Z,24.77
2016-07-13T12:05:04.481Z,24.84
2016-07-13T12:06:03.698Z,25.08
2016-07-13T12:07:03.758Z,24.97
2016-07-13T12:08:03.686Z,25.26
2016-07-13T12:09:04.400Z,25.36
2016-07-13T12:10:04.380Z,25.37
2016-07-13T12:11:03.665Z,25.54
2016-07-13T12:12:04.367Z,25.91
2016-07-13T12:13:03.646Z,25.7
2016-07-13T12:14:04.345Z,25.4
2016-07-13T12:15:02.913Z,25.62
2016-07-13T12:16:04.349Z,25.92
2016-07-13T12:17:03.607Z,25.95
2016-07-13T12:18:04.320Z,25.84
2016-07-13T12:19:04.318Z,25.49
2016-07-13T12:20:04.307Z,25.14
2016-07-13T12:21:04.298Z,24.97
2016-07-13T12:22:04.290Z,24.89
2016-07-13T12:23:03.571Z,24.85
2016-07-13T12:24:04.274Z,24.77
2016-07-13T12:25:04.288Z,24.81
2016-07-13T12:26:04.285Z,24.82
2016-07-13T12:27:02.818Z,24.85
2016-07-13T12:28:04.262Z,25.05
2016-07-13T12:29:04.250Z,24.99
2016-07-13T12:30:04.229Z,24.92
2016-07-13T12:31:03.509Z,24.93
2016-07-13T12:32:03.501Z,24.92
2016-07-13T12:33:03.492Z,24.9
2016-07-13T12:34:04.200Z,24.84
2016-07-13T12:35:02.761Z,24.89
2016-07-13T12:36:04.171Z,24.78
2016-07-13T12:37:04.186Z,24.85
2016-07-13T12:38:04.160Z,24.58
2016-07-13T12:39:04.156Z,24.22
2016-07-13T12:40:04.158Z,23.66
2016-07-13T12:41:02.699Z,23.57
2016-07-13T12:42:04.130Z,23.6
2016-07-13T12:43:04.116Z,23.57
2016-07-13T12:44:04.104Z,23.33
2016-07-13T12:45:03.391Z,23.28
2016-07-13T12:46:04.098Z,23.1
2016-07-13T12:47:04.089Z,23.14
2016-07-13T12:48:04.075Z,23.12
2016-07-13T12:49:03.420Z,23.27
2016-07-13T12:50:04.070Z,23.24
2016-07-13T12:51:03.328Z,22.92
2016-07-13T12:52:04.031Z,22.88
2016-07-13T12:53:04.028Z,22.72
2016-07-13T12:54:03.330Z,22.65
2016-07-13T12:55:03.295Z,22.77